Terminal Aerodrome Forecast
Issued by NWS

Home | Current Version | Previous Version | Text Only | Print | Product List | Glossary On
Versions: 1 2 3 4 5 6 7 8 9 10 11 12 13 14 15 16 17 18
226
FTUS43 KAPX 212332
TAFPLN
TAF
KPLN 212332Z 2200/2224 08005KT P6SM FEW070 SCT250
     FM220400 00000KT 2SM BR FEW100
     FM221300 21006KT P6SM FEW035 FEW200
     FM221800 24006KT P6SM FEW040 FEW200=

USA.gov is the U.S. government's official web portal to all federal, state and local government web resources and services.